sensor_id;sensor_type;location;lat;lon;timestamp;temperature;humidity
26051;DHT22;13825;53.496;10.020;2022-10-16T00:00:31;13.80;99.90
26051;DHT22;13825;53.496;10.020;2022-10-16T00:02:59;13.80;99.90
26051;DHT22;13825;53.496;10.020;2022-10-16T00:05:26;13.80;99.90
26051;DHT22;13825;53.496;10.020;2022-10-16T00:07:53;13.80;99.90
26051;DHT22;13825;53.496;10.020;2022-10-16T00:10:20;13.80;99.90
26051;DHT22;13825;53.496;10.020;2022-10-16T00:12:47;13.80;99.90
26051;DHT22;13825;53.496;10.020;2022-10-16T00:15:17;13.80;99.90
26051;DHT22;13825;53.496;10.020;2022-10-16T00:17:44;14.00;99.90
26051;DHT22;13825;53.496;10.020;2022-10-16T00:20:12;13.80;99.90
26051;DHT22;13825;53.496;10.020;2022-10-16T00:22:53;13.80;99.90
26051;DHT22;13825;53.496;10.020;2022-10-16T00:25:20;13.80;99.90
26051;DHT22;13825;53.496;10.020;2022-10-16T00:27:47;13.80;99.90
26051;DHT22;13825;53.496;10.020;2022-10-16T00:30:14;13.80;99.90
26051;DHT22;13825;53.496;10.020;2022-10-16T00:32:41;13.80;99.90
26051;DHT22;13825;53.496;10.020;2022-10-16T00:35:08;13.70;99.90
26051;DHT22;13825;53.496;10.020;2022-10-16T00:37:36;13.70;99.90
26051;DHT22;13825;53.496;10.020;2022-10-16T00:40:03;13.70;99.90
26051;DHT22;13825;53.496;10.020;2022-10-16T00:42:30;13.60;99.90
26051;DHT22;13825;53.496;10.020;2022-10-16T00:44:57;13.60;99.90
26051;DHT22;13825;53.496;10.020;2022-10-16T00:47:27;13.50;99.90
26051;DHT22;13825;53.496;10.020;2022-10-16T00:49:59;13.50;99.90
26051;DHT22;13825;53.496;10.020;2022-10-16T00:52:27;13.50;99.90
26051;DHT22;13825;53.496;10.020;2022-10-16T00:54:56;13.50;99.90
26051;DHT22;13825;53.496;10.020;2022-10-16T00:57:24;13.20;99.90
26051;DHT22;13825;53.496;10.020;2022-10-16T00:59:51;13.40;99.90
26051;DHT22;13825;53.496;10.020;2022-10-16T01:02:18;13.60;99.90
26051;DHT22;13825;53.496;10.020;2022-10-16T01:04:48;13.40;99.90
26051;DHT22;13825;53.496;10.020;2022-10-16T01:07:24;13.40;99.90
26051;DHT22;13825;53.496;10.020;2022-10-16T01:10:07;13.40;99.90
26051;DHT22;13825;53.496;10.020;2022-10-16T01:12:40;13.30;99.90
26051;DHT22;13825;53.496;10.020;2022-10-16T01:15:12;13.20;99.90
26051;DHT22;13825;53.496;10.020;2022-10-16T01:17:43;13.30;99.90
26051;DHT22;13825;53.496;10.020;2022-10-16T01:20:18;13.30;99.90
26051;DHT22;13825;53.496;10.020;2022-10-16T01:23:03;13.30;99.90
26051;DHT22;13825;53.496;10.020;2022-10-16T01:25:43;13.20;99.90
26051;DHT22;13825;53.496;10.020;2022-10-16T01:28:13;13.30;99.90
26051;DHT22;13825;53.496;10.020;2022-10-16T01:30:44;13.20;99.90
26051;DHT22;13825;53.496;10.020;2022-10-16T01:33:16;13.20;99.90
26051;DHT22;13825;53.496;10.020;2022-10-16T01:35:46;13.20;99.90
26051;DHT22;13825;53.496;10.020;2022-10-16T01:38:17;13.10;99.90
26051;DHT22;13825;53.496;10.020;2022-10-16T01:40:48;13.00;99.90
26051;DHT22;13825;53.496;10.020;2022-10-16T01:43:20;13.20;99.90
26051;DHT22;13825;53.496;10.020;2022-10-16T01:45:49;13.00;99.90
26051;DHT22;13825;53.496;10.020;2022-10-16T01:48:19;13.00;99.90
26051;DHT22;13825;53.496;10.020;2022-10-16T01:50:54;13.00;99.90
26051;DHT22;13825;53.496;10.020;2022-10-16T01:53:24;12.90;99.90
26051;DHT22;13825;53.496;10.020;2022-10-16T01:55:54;12.80;99.90
26051;DHT22;13825;53.496;10.020;2022-10-16T01:58:24;12.90;99.90
26051;DHT22;13825;53.496;10.020;2022-10-16T02:00:52;12.90;99.90
26051;DHT22;13825;53.496;10.020;2022-10-16T02:03:21;12.90;99.90
26051;DHT22;13825;53.496;10.020;2022-10-16T02:05:51;12.90;99.90
26051;DHT22;13825;53.496;10.020;2022-10-16T02:08:20;13.10;99.90
26051;DHT22;13825;53.496;10.020;2022-10-16T02:10:47;12.90;99.90
26051;DHT22;13825;53.496;10.020;2022-10-16T02:13:18;12.90;99.90
26051;DHT22;13825;53.496;10.020;2022-10-16T02:15:48;12.90;99.90
26051;DHT22;13825;53.496;10.020;2022-10-16T02:18:15;12.90;99.90
26051;DHT22;13825;53.496;10.020;2022-10-16T02:20:48;12.90;99.90
26051;DHT22;13825;53.496;10.020;2022-10-16T02:23:21;12.80;99.90
26051;DHT22;13825;53.496;10.020;2022-10-16T02:25:52;12.80;99.90
26051;DHT22;13825;53.496;10.020;2022-10-16T02:28:25;12.80;99.90
26051;DHT22;13825;53.496;10.020;2022-10-16T02:30:58;12.70;99.90
26051;DHT22;13825;53.496;10.020;2022-10-16T02:33:26;12.70;99.90
26051;DHT22;13825;53.496;10.020;2022-10-16T02:35:54;12.70;99.90
26051;DHT22;13825;53.496;10.020;2022-10-16T02:38:22;12.50;99.90
26051;DHT22;13825;53.496;10.020;2022-10-16T02:40:50;12.60;99.90
26051;DHT22;13825;53.496;10.020;2022-10-16T02:43:17;12.70;99.90
26051;DHT22;13825;53.496;10.020;2022-10-16T02:45:44;12.60;99.90
26051;DHT22;13825;53.496;10.020;2022-10-16T02:48:12;12.60;99.90
26051;DHT22;13825;53.496;10.020;2022-10-16T02:50:39;12.30;99.90
26051;DHT22;13825;53.496;10.020;2022-10-16T02:53:06;12.50;99.90
26051;DHT22;13825;53.496;10.020;2022-10-16T02:55:46;12.50;99.90
26051;DHT22;13825;53.496;10.020;2022-10-16T02:58:13;12.40;99.90
26051;DHT22;13825;53.496;10.020;2022-10-16T03:00:40;12.30;99.90
26051;DHT22;13825;53.496;10.020;2022-10-16T03:03:07;12.30;99.90
26051;DHT22;13825;53.496;10.020;2022-10-16T03:05:35;12.30;99.90
26051;DHT22;13825;53.496;10.020;2022-10-16T03:08:03;12.20;99.90
26051;DHT22;13825;53.496;10.020;2022-10-16T03:10:29;12.20;99.90
26051;DHT22;13825;53.496;10.020;2022-10-16T03:12:58;12.00;99.90
26051;DHT22;13825;53.496;10.020;2022-10-16T03:15:25;12.10;99.90
26051;DHT22;13825;53.496;10.020;2022-10-16T03:17:53;12.10;99.90
26051;DHT22;13825;53.496;10.020;2022-10-16T03:20:22;12.00;99.90
26051;DHT22;13825;53.496;10.020;2022-10-16T03:22:50;12.00;99.90
26051;DHT22;13825;53.496;10.020;2022-10-16T03:25:17;12.00;99.90
26051;DHT22;13825;53.496;10.020;2022-10-16T03:27:44;11.90;99.90
26051;DHT22;13825;53.496;10.020;2022-10-16T03:30:12;11.90;99.90
26051;DHT22;13825;53.496;10.020;2022-10-16T03:32:38;11.90;99.90
26051;DHT22;13825;53.496;10.020;2022-10-16T03:35:06;11.90;99.90
26051;DHT22;13825;53.496;10.020;2022-10-16T03:37:33;11.90;99.90
26051;DHT22;13825;53.496;10.020;2022-10-16T03:40:02;11.90;99.90
26051;DHT22;13825;53.496;10.020;2022-10-16T03:42:29;11.90;99.90
26051;DHT22;13825;53.496;10.020;2022-10-16T03:44:55;11.80;99.90
26051;DHT22;13825;53.496;10.020;2022-10-16T03:47:22;11.80;99.90
26051;DHT22;13825;53.496;10.020;2022-10-16T03:49:49;11.80;99.90
26051;DHT22;13825;53.496;10.020;2022-10-16T03:52:16;11.80;99.90
26051;DHT22;13825;53.496;10.020;2022-10-16T03:54:43;11.80;99.90
26051;DHT22;13825;53.496;10.020;2022-10-16T03:57:11;11.80;99.90
26051;DHT22;13825;53.496;10.020;2022-10-16T03:59:38;11.90;99.90
26051;DHT22;13825;53.496;10.020;2022-10-16T04:02:05;11.90;99.90
26051;DHT22;13825;53.496;10.020;2022-10-16T04:04:32;11.90;99.90
26051;DHT22;13825;53.496;10.020;2022-10-16T04:06:59;11.80;99.90
26051;DHT22;13825;53.496;10.020;2022-10-16T04:09:31;11.80;99.90
26051;DHT22;13825;53.496;10.020;2022-10-16T04:11:58;11.80;99.90
26051;DHT22;13825;53.496;10.020;2022-10-16T04:14:26;11.80;99.90
26051;DHT22;13825;53.496;10.020;2022-10-16T04:16:53;11.80;99.90
26051;DHT22;13825;53.496;10.020;2022-10-16T04:19:20;11.80;99.90
26051;DHT22;13825;53.496;10.020;2022-10-16T04:21:47;11.80;99.90
26051;DHT22;13825;53.496;10.020;2022-10-16T04:24:16;11.70;99.90
26051;DHT22;13825;53.496;10.020;2022-10-16T04:26:43;11.70;99.90
26051;DHT22;13825;53.496;10.020;2022-10-16T04:29:10;11.70;99.90
26051;DHT22;13825;53.496;10.020;2022-10-16T04:31:38;11.70;99.90
26051;DHT22;13825;53.496;10.020;2022-10-16T04:34:05;11.70;99.90
26051;DHT22;13825;53.496;10.020;2022-10-16T04:36:32;11.70;99.90
26051;DHT22;13825;53.496;10.020;2022-10-16T04:38:59;11.70;99.90
26051;DHT22;13825;53.496;10.020;2022-10-16T04:41:27;11.70;99.90
26051;DHT22;13825;53.496;10.020;2022-10-16T04:43:54;11.70;99.90
26051;DHT22;13825;53.496;10.020;2022-10-16T04:46:21;11.60;99.90
26051;DHT22;13825;53.496;10.020;2022-10-16T04:48:49;11.60;99.90
26051;DHT22;13825;53.496;10.020;2022-10-16T04:51:16;11.70;99.90
26051;DHT22;13825;53.496;10.020;2022-10-16T04:53:44;11.60;99.90
26051;DHT22;13825;53.496;10.020;2022-10-16T04:56:10;11.60;99.90
26051;DHT22;13825;53.496;10.020;2022-10-16T04:58:37;11.60;99.90
26051;DHT22;13825;53.496;10.020;2022-10-16T05:01:04;11.50;99.90
26051;DHT22;13825;53.496;10.020;2022-10-16T05:03:31;11.60;99.90
26051;DHT22;13825;53.496;10.020;2022-10-16T05:06:04;11.60;99.90
26051;DHT22;13825;53.496;10.020;2022-10-16T05:08:38;11.60;99.90
26051;DHT22;13825;53.496;10.020;2022-10-16T05:11:12;11.60;99.90
26051;DHT22;13825;53.496;10.020;2022-10-16T05:13:42;11.50;99.90
26051;DHT22;13825;53.496;10.020;2022-10-16T05:16:12;11.50;99.90
26051;DHT22;13825;53.496;10.020;2022-10-16T05:18:52;11.60;99.90
26051;DHT22;13825;53.496;10.020;2022-10-16T05:21:39;11.60;99.90
26051;DHT22;13825;53.496;10.020;2022-10-16T05:24:12;11.50;99.90
26051;DHT22;13825;53.496;10.020;2022-10-16T05:26:54;11.60;99.90
26051;DHT22;13825;53.496;10.020;2022-10-16T05:29:21;11.60;99.90
26051;DHT22;13825;53.496;10.020;2022-10-16T05:31:53;11.40;99.90
26051;DHT22;13825;53.496;10.020;2022-10-16T05:34:21;11.50;99.90
26051;DHT22;13825;53.496;10.020;2022-10-16T05:36:49;11.50;99.90
26051;DHT22;13825;53.496;10.020;2022-10-16T05:44:21;11.50;99.90
26051;DHT22;13825;53.496;10.020;2022-10-16T05:46:48;11.50;99.90
26051;DHT22;13825;53.496;10.020;2022-10-16T05:49:24;11.50;99.90
26051;DHT22;13825;53.496;10.020;2022-10-16T05:51:53;11.50;99.90
26051;DHT22;13825;53.496;10.020;2022-10-16T05:54:20;11.50;99.90
26051;DHT22;13825;53.496;10.020;2022-10-16T05:56:47;11.50;99.90
26051;DHT22;13825;53.496;10.020;2022-10-16T05:59:14;11.50;99.90
26051;DHT22;13825;53.496;10.020;2022-10-16T06:01:40;11.50;99.90
26051;DHT22;13825;53.496;10.020;2022-10-16T06:04:08;11.60;99.90
26051;DHT22;13825;53.496;10.020;2022-10-16T06:06:35;11.60;99.90
26051;DHT22;13825;53.496;10.020;2022-10-16T06:09:04;11.70;99.90
26051;DHT22;13825;53.496;10.020;2022-10-16T06:11:32;11.70;99.90
26051;DHT22;13825;53.496;10.020;2022-10-16T06:14:00;11.70;99.90
26051;DHT22;13825;53.496;10.020;2022-10-16T06:16:32;11.70;99.90
26051;DHT22;13825;53.496;10.020;2022-10-16T06:18:58;11.80;99.90
26051;DHT22;13825;53.496;10.020;2022-10-16T06:21:26;11.80;99.90
26051;DHT22;13825;53.496;10.020;2022-10-16T06:23:54;11.70;99.90
26051;DHT22;13825;53.496;10.020;2022-10-16T06:26:25;11.80;99.90
26051;DHT22;13825;53.496;10.020;2022-10-16T06:28:54;11.80;99.90
26051;DHT22;13825;53.496;10.020;2022-10-16T06:31:21;11.90;99.90
26051;DHT22;13825;53.496;10.020;2022-10-16T06:33:50;11.90;99.90
26051;DHT22;13825;53.496;10.020;2022-10-16T06:36:18;11.80;99.90
26051;DHT22;13825;53.496;10.020;2022-10-16T06:38:45;11.90;99.90
26051;DHT22;13825;53.496;10.020;2022-10-16T06:41:14;11.90;99.90
26051;DHT22;13825;53.496;10.020;2022-10-16T06:43:42;11.90;99.90
26051;DHT22;13825;53.496;10.020;2022-10-16T06:46:11;11.90;99.90
26051;DHT22;13825;53.496;10.020;2022-10-16T06:48:38;12.00;99.90
26051;DHT22;13825;53.496;10.020;2022-10-16T06:51:06;12.00;99.90
26051;DHT22;13825;53.496;10.020;2022-10-16T06:53:35;12.00;99.90
26051;DHT22;13825;53.496;10.020;2022-10-16T06:56:09;12.00;99.90
26051;DHT22;13825;53.496;10.020;2022-10-16T06:58:37;12.10;99.90
26051;DHT22;13825;53.496;10.020;2022-10-16T07:01:06;12.10;99.90
26051;DHT22;13825;53.496;10.020;2022-10-16T07:03:35;12.10;99.90
26051;DHT22;13825;53.496;10.020;2022-10-16T07:06:03;12.30;99.90
26051;DHT22;13825;53.496;10.020;2022-10-16T07:08:31;12.40;99.90
26051;DHT22;13825;53.496;10.020;2022-10-16T07:10:59;12.50;99.90
26051;DHT22;13825;53.496;10.020;2022-10-16T07:13:26;12.60;99.90
26051;DHT22;13825;53.496;10.020;2022-10-16T07:15:56;12.70;99.90
26051;DHT22;13825;53.496;10.020;2022-10-16T07:18:25;12.80;99.90
26051;DHT22;13825;53.496;10.020;2022-10-16T07:20:52;13.00;99.90
26051;DHT22;13825;53.496;10.020;2022-10-16T07:23:19;13.10;99.90
26051;DHT22;13825;53.496;10.020;2022-10-16T07:25:45;13.10;99.90
26051;DHT22;13825;53.496;10.020;2022-10-16T07:28:19;13.20;99.90
26051;DHT22;13825;53.496;10.020;2022-10-16T07:30:46;13.30;99.90
26051;DHT22;13825;53.496;10.020;2022-10-16T07:33:12;13.30;99.90
26051;DHT22;13825;53.496;10.020;2022-10-16T07:35:49;13.30;99.90
26051;DHT22;13825;53.496;10.020;2022-10-16T07:38:16;13.30;99.90
26051;DHT22;13825;53.496;10.020;2022-10-16T07:40:42;13.30;99.90
26051;DHT22;13825;53.496;10.020;2022-10-16T07:43:09;13.40;99.90
26051;DHT22;13825;53.496;10.020;2022-10-16T07:45:36;13.40;99.90
26051;DHT22;13825;53.496;10.020;2022-10-16T07:48:03;13.50;99.90
26051;DHT22;13825;53.496;10.020;2022-10-16T07:50:30;13.60;99.90
26051;DHT22;13825;53.496;10.020;2022-10-16T07:53:01;13.70;99.90
26051;DHT22;13825;53.496;10.020;2022-10-16T07:55:27;13.90;99.90
26051;DHT22;13825;53.496;10.020;2022-10-16T07:57:54;14.00;99.90
26051;DHT22;13825;53.496;10.020;2022-10-16T08:00:24;14.10;99.90
26051;DHT22;13825;53.496;10.020;2022-10-16T08:02:51;14.20;99.90
26051;DHT22;13825;53.496;10.020;2022-10-16T08:05:18;14.20;99.90
26051;DHT22;13825;53.496;10.020;2022-10-16T08:07:48;14.10;99.90
26051;DHT22;13825;53.496;10.020;2022-10-16T08:10:17;14.20;99.90
26051;DHT22;13825;53.496;10.020;2022-10-16T08:12:44;14.30;99.90
26051;DHT22;13825;53.496;10.020;2022-10-16T08:15:11;14.20;99.90
26051;DHT22;13825;53.496;10.020;2022-10-16T08:17:38;14.30;99.90
26051;DHT22;13825;53.496;10.020;2022-10-16T08:20:06;14.30;99.90
26051;DHT22;13825;53.496;10.020;2022-10-16T08:22:32;14.40;99.90
26051;DHT22;13825;53.496;10.020;2022-10-16T08:24:59;14.40;99.90
26051;DHT22;13825;53.496;10.020;2022-10-16T08:27:32;14.40;99.90
26051;DHT22;13825;53.496;10.020;2022-10-16T08:29:59;14.50;99.90
26051;DHT22;13825;53.496;10.020;2022-10-16T08:32:26;14.60;99.90
26051;DHT22;13825;53.496;10.020;2022-10-16T08:34:53;14.60;99.90
26051;DHT22;13825;53.496;10.020;2022-10-16T08:37:20;14.70;99.90
26051;DHT22;13825;53.496;10.020;2022-10-16T08:39:47;14.80;99.90
26051;DHT22;13825;53.496;10.020;2022-10-16T08:42:23;14.90;99.90
26051;DHT22;13825;53.496;10.020;2022-10-16T08:45:22;14.90;99.90
26051;DHT22;13825;53.496;10.020;2022-10-16T08:48:02;15.00;99.90
26051;DHT22;13825;53.496;10.020;2022-10-16T08:50:37;15.20;99.90
26051;DHT22;13825;53.496;10.020;2022-10-16T08:53:10;15.10;99.90
26051;DHT22;13825;53.496;10.020;2022-10-16T08:55:43;15.20;99.90
26051;DHT22;13825;53.496;10.020;2022-10-16T08:58:13;15.30;99.90
26051;DHT22;13825;53.496;10.020;2022-10-16T09:00:45;15.40;99.90
26051;DHT22;13825;53.496;10.020;2022-10-16T09:03:19;15.40;99.90
26051;DHT22;13825;53.496;10.020;2022-10-16T09:06:13;15.50;99.90
26051;DHT22;13825;53.496;10.020;2022-10-16T09:08:50;15.60;99.90
26051;DHT22;13825;53.496;10.020;2022-10-16T09:11:29;15.70;99.90
26051;DHT22;13825;53.496;10.020;2022-10-16T09:14:00;15.90;90.80
26051;DHT22;13825;53.496;10.020;2022-10-16T09:16:33;15.90;99.90
26051;DHT22;13825;53.496;10.020;2022-10-16T09:19:09;16.10;11.10
26051;DHT22;13825;53.496;10.020;2022-10-16T09:21:40;16.20;99.90
26051;DHT22;13825;53.496;10.020;2022-10-16T09:24:11;16.20;1.00
26051;DHT22;13825;53.496;10.020;2022-10-16T09:26:40;16.10;1.00
26051;DHT22;13825;53.496;10.020;2022-10-16T09:29:08;16.20;1.00
26051;DHT22;13825;53.496;10.020;2022-10-16T09:31:37;16.40;1.00
26051;DHT22;13825;53.496;10.020;2022-10-16T09:34:05;16.40;1.00
26051;DHT22;13825;53.496;10.020;2022-10-16T09:36:40;16.40;99.90
26051;DHT22;13825;53.496;10.020;2022-10-16T09:39:09;16.70;1.00
26051;DHT22;13825;53.496;10.020;2022-10-16T09:41:39;16.40;1.00
26051;DHT22;13825;53.496;10.020;2022-10-16T09:44:18;16.50;1.00
26051;DHT22;13825;53.496;10.020;2022-10-16T09:46:47;16.50;99.70
26051;DHT22;13825;53.496;10.020;2022-10-16T09:49:22;16.50;1.00
26051;DHT22;13825;53.496;10.020;2022-10-16T09:51:50;17.00;1.00
26051;DHT22;13825;53.496;10.020;2022-10-16T09:54:20;16.70;99.90
26051;DHT22;13825;53.496;10.020;2022-10-16T09:56:47;16.70;99.90
26051;DHT22;13825;53.496;10.020;2022-10-16T09:59:19;16.70;1.00
26051;DHT22;13825;53.496;10.020;2022-10-16T10:01:49;17.00;1.00
26051;DHT22;13825;53.496;10.020;2022-10-16T10:04:16;16.80;99.90
26051;DHT22;13825;53.496;10.020;2022-10-16T10:06:45;16.50;1.00
26051;DHT22;13825;53.496;10.020;2022-10-16T10:09:18;16.60;22.20
26051;DHT22;13825;53.496;10.020;2022-10-16T10:11:51;16.70;99.90
26051;DHT22;13825;53.496;10.020;2022-10-16T10:14:27;16.90;99.90
26051;DHT22;13825;53.496;10.020;2022-10-16T10:17:12;17.20;99.90
26051;DHT22;13825;53.496;10.020;2022-10-16T10:19:42;17.10;99.90
26051;DHT22;13825;53.496;10.020;2022-10-16T10:22:19;17.20;1.00
26051;DHT22;13825;53.496;10.020;2022-10-16T10:24:55;17.40;1.00
26051;DHT22;13825;53.496;10.020;2022-10-16T10:27:29;17.40;99.90
26051;DHT22;13825;53.496;10.020;2022-10-16T10:30:02;17.50;99.90
26051;DHT22;13825;53.496;10.020;2022-10-16T10:32:39;17.50;99.90
26051;DHT22;13825;53.496;10.020;2022-10-16T10:35:15;17.50;1.00
26051;DHT22;13825;53.496;10.020;2022-10-16T10:37:53;17.50;99.90
26051;DHT22;13825;53.496;10.020;2022-10-16T10:40:30;17.60;99.90
26051;DHT22;13825;53.496;10.020;2022-10-16T10:43:04;17.40;1.00
26051;DHT22;13825;53.496;10.020;2022-10-16T10:45:41;17.50;99.90
26051;DHT22;13825;53.496;10.020;2022-10-16T10:48:43;17.50;99.90
26051;DHT22;13825;53.496;10.020;2022-10-16T10:51:16;17.60;99.90
26051;DHT22;13825;53.496;10.020;2022-10-16T10:53:49;17.50;99.90
26051;DHT22;13825;53.496;10.020;2022-10-16T10:56:43;17.40;99.90
26051;DHT22;13825;53.496;10.020;2022-10-16T10:59:36;17.40;99.90
26051;DHT22;13825;53.496;10.020;2022-10-16T11:02:13;17.40;10.30
26051;DHT22;13825;53.496;10.020;2022-10-16T11:07:50;17.70;99.90
26051;DHT22;13825;53.496;10.020;2022-10-16T11:10:21;17.80;52.50
26051;DHT22;13825;53.496;10.020;2022-10-16T11:12:52;18.10;99.90
26051;DHT22;13825;53.496;10.020;2022-10-16T11:15:23;18.00;1.00
26051;DHT22;13825;53.496;10.020;2022-10-16T11:17:53;18.00;1.00
26051;DHT22;13825;53.496;10.020;2022-10-16T11:20:24;18.20;1.00
26051;DHT22;13825;53.496;10.020;2022-10-16T11:22:56;18.50;91.40
26051;DHT22;13825;53.496;10.020;2022-10-16T11:25:26;18.30;1.00
26051;DHT22;13825;53.496;10.020;2022-10-16T11:27:58;18.00;99.90
26051;DHT22;13825;53.496;10.020;2022-10-16T11:30:29;17.90;1.00
26051;DHT22;13825;53.496;10.020;2022-10-16T11:33:13;18.20;99.90
26051;DHT22;13825;53.496;10.020;2022-10-16T11:35:48;18.10;1.00
26051;DHT22;13825;53.496;10.020;2022-10-16T11:38:28;18.50;1.00
26051;DHT22;13825;53.496;10.020;2022-10-16T11:40:59;18.40;1.00
26051;DHT22;13825;53.496;10.020;2022-10-16T11:43:32;18.40;1.00
26051;DHT22;13825;53.496;10.020;2022-10-16T11:46:04;18.30;1.00
26051;DHT22;13825;53.496;10.020;2022-10-16T11:48:39;18.10;99.90
26051;DHT22;13825;53.496;10.020;2022-10-16T11:51:17;18.00;1.00
26051;DHT22;13825;53.496;10.020;2022-10-16T11:53:53;18.00;99.90
26051;DHT22;13825;53.496;10.020;2022-10-16T11:56:22;18.10;1.00
26051;DHT22;13825;53.496;10.020;2022-10-16T11:58:56;17.90;1.00
26051;DHT22;13825;53.496;10.020;2022-10-16T12:01:30;17.90;4.40
26051;DHT22;13825;53.496;10.020;2022-10-16T12:04:06;17.70;1.00
26051;DHT22;13825;53.496;10.020;2022-10-16T12:06:41;17.60;1.00
26051;DHT22;13825;53.496;10.020;2022-10-16T12:09:25;17.60;99.90
26051;DHT22;13825;53.496;10.020;2022-10-16T12:11:53;17.70;99.90
26051;DHT22;13825;53.496;10.020;2022-10-16T12:14:38;17.70;99.90
26051;DHT22;13825;53.496;10.020;2022-10-16T12:17:24;17.60;1.00
26051;DHT22;13825;53.496;10.020;2022-10-16T12:19:58;17.40;1.00
26051;DHT22;13825;53.496;10.020;2022-10-16T12:22:28;17.50;99.90
26051;DHT22;13825;53.496;10.020;2022-10-16T12:24:57;17.70;99.90
26051;DHT22;13825;53.496;10.020;2022-10-16T12:27:28;18.10;99.90
26051;DHT22;13825;53.496;10.020;2022-10-16T12:29:57;18.40;99.90
26051;DHT22;13825;53.496;10.020;2022-10-16T12:32:30;18.10;99.90
26051;DHT22;13825;53.496;10.020;2022-10-16T12:34:58;18.00;1.00
26051;DHT22;13825;53.496;10.020;2022-10-16T12:37:27;17.80;99.90
26051;DHT22;13825;53.496;10.020;2022-10-16T12:39:57;17.70;99.90
26051;DHT22;13825;53.496;10.020;2022-10-16T12:42:33;17.50;1.00
26051;DHT22;13825;53.496;10.020;2022-10-16T12:45:01;17.60;99.90
26051;DHT22;13825;53.496;10.020;2022-10-16T12:47:46;17.70;99.90
26051;DHT22;13825;53.496;10.020;2022-10-16T12:50:26;18.10;99.90
26051;DHT22;13825;53.496;10.020;2022-10-16T12:52:53;17.90;99.90
26051;DHT22;13825;53.496;10.020;2022-10-16T12:55:22;17.80;1.00
26051;DHT22;13825;53.496;10.020;2022-10-16T12:58:04;17.60;99.90
26051;DHT22;13825;53.496;10.020;2022-10-16T13:00:38;17.50;1.00
26051;DHT22;13825;53.496;10.020;2022-10-16T13:03:44;17.40;1.00
26051;DHT22;13825;53.496;10.020;2022-10-16T13:06:22;17.30;1.00
26051;DHT22;13825;53.496;10.020;2022-10-16T13:09:07;17.10;1.00
26051;DHT22;13825;53.496;10.020;2022-10-16T13:11:57;17.50;1.00
26051;DHT22;13825;53.496;10.020;2022-10-16T13:17:20;18.40;99.90
26051;DHT22;13825;53.496;10.020;2022-10-16T13:19:54;18.60;1.00
26051;DHT22;13825;53.496;10.020;2022-10-16T13:22:31;18.80;1.00
26051;DHT22;13825;53.496;10.020;2022-10-16T13:25:10;18.90;1.00
26051;DHT22;13825;53.496;10.020;2022-10-16T13:27:52;18.80;1.00
26051;DHT22;13825;53.496;10.020;2022-10-16T13:30:23;19.00;1.00
26051;DHT22;13825;53.496;10.020;2022-10-16T13:32:57;18.70;1.00
26051;DHT22;13825;53.496;10.020;2022-10-16T13:35:27;18.30;1.00
26051;DHT22;13825;53.496;10.020;2022-10-16T13:38:11;18.00;1.00
26051;DHT22;13825;53.496;10.020;2022-10-16T13:40:48;18.40;1.00
26051;DHT22;13825;53.496;10.020;2022-10-16T13:43:18;18.70;1.00
26051;DHT22;13825;53.496;10.020;2022-10-16T13:45:57;18.60;99.90
26051;DHT22;13825;53.496;10.020;2022-10-16T13:48:24;18.20;1.00
26051;DHT22;13825;53.496;10.020;2022-10-16T13:51:02;18.30;1.00
26051;DHT22;13825;53.496;10.020;2022-10-16T13:53:31;18.10;18.50
26051;DHT22;13825;53.496;10.020;2022-10-16T13:55:59;18.40;1.00
26051;DHT22;13825;53.496;10.020;2022-10-16T13:58:28;18.60;99.90
26051;DHT22;13825;53.496;10.020;2022-10-16T14:00:56;18.70;99.90
26051;DHT22;13825;53.496;10.020;2022-10-16T14:03:24;18.90;1.00
26051;DHT22;13825;53.496;10.020;2022-10-16T14:05:53;19.00;99.90
26051;DHT22;13825;53.496;10.020;2022-10-16T14:08:21;19.00;99.90
26051;DHT22;13825;53.496;10.020;2022-10-16T14:10:50;19.10;99.90
26051;DHT22;13825;53.496;10.020;2022-10-16T14:13:20;19.20;99.90
26051;DHT22;13825;53.496;10.020;2022-10-16T14:15:51;19.20;99.90
26051;DHT22;13825;53.496;10.020;2022-10-16T14:18:22;19.20;99.90
26051;DHT22;13825;53.496;10.020;2022-10-16T14:20:50;19.20;1.00
26051;DHT22;13825;53.496;10.020;2022-10-16T14:23:22;19.30;99.90
26051;DHT22;13825;53.496;10.020;2022-10-16T14:25:49;19.30;1.00
26051;DHT22;13825;53.496;10.020;2022-10-16T14:28:17;19.10;99.90
26051;DHT22;13825;53.496;10.020;2022-10-16T14:30:51;19.20;1.00
26051;DHT22;13825;53.496;10.020;2022-10-16T14:33:21;19.30;36.10
26051;DHT22;13825;53.496;10.020;2022-10-16T14:36:00;19.40;99.90
26051;DHT22;13825;53.496;10.020;2022-10-16T14:38:28;19.10;1.00
26051;DHT22;13825;53.496;10.020;2022-10-16T14:40:57;19.20;1.00
26051;DHT22;13825;53.496;10.020;2022-10-16T14:43:34;19.30;99.90
26051;DHT22;13825;53.496;10.020;2022-10-16T14:46:05;19.10;1.00
26051;DHT22;13825;53.496;10.020;2022-10-16T14:48:33;19.00;99.90
26051;DHT22;13825;53.496;10.020;2022-10-16T14:51:00;19.00;1.00
26051;DHT22;13825;53.496;10.020;2022-10-16T14:53:27;19.30;1.00
26051;DHT22;13825;53.496;10.020;2022-10-16T14:55:54;19.50;1.00
26051;DHT22;13825;53.496;10.020;2022-10-16T14:58:22;19.70;99.90
26051;DHT22;13825;53.496;10.020;2022-10-16T15:00:50;19.50;1.00
26051;DHT22;13825;53.496;10.020;2022-10-16T15:03:18;19.50;99.90
26051;DHT22;13825;53.496;10.020;2022-10-16T15:05:45;19.20;99.90
26051;DHT22;13825;53.496;10.020;2022-10-16T15:08:11;18.90;1.00
26051;DHT22;13825;53.496;10.020;2022-10-16T15:10:40;19.10;1.00
26051;DHT22;13825;53.496;10.020;2022-10-16T15:13:11;19.30;1.00
26051;DHT22;13825;53.496;10.020;2022-10-16T15:15:40;19.20;1.00
26051;DHT22;13825;53.496;10.020;2022-10-16T15:18:08;19.20;99.90
26051;DHT22;13825;53.496;10.020;2022-10-16T15:20:38;19.20;99.90
26051;DHT22;13825;53.496;10.020;2022-10-16T15:23:06;19.10;99.90
26051;DHT22;13825;53.496;10.020;2022-10-16T15:25:39;19.20;99.90
26051;DHT22;13825;53.496;10.020;2022-10-16T15:28:08;19.00;99.90
26051;DHT22;13825;53.496;10.020;2022-10-16T15:30:36;19.00;99.90
26051;DHT22;13825;53.496;10.020;2022-10-16T15:33:04;18.80;99.90
26051;DHT22;13825;53.496;10.020;2022-10-16T15:35:31;18.60;99.90
26051;DHT22;13825;53.496;10.020;2022-10-16T15:37:59;18.40;52.50
26051;DHT22;13825;53.496;10.020;2022-10-16T15:40:26;18.30;99.90
26051;DHT22;13825;53.496;10.020;2022-10-16T15:42:53;18.00;99.90
26051;DHT22;13825;53.496;10.020;2022-10-16T15:45:20;18.00;1.00
26051;DHT22;13825;53.496;10.020;2022-10-16T15:47:47;18.00;99.90
26051;DHT22;13825;53.496;10.020;2022-10-16T15:50:14;17.80;1.00
26051;DHT22;13825;53.496;10.020;2022-10-16T15:52:42;17.40;93.50